sensor_id;sensor_type;location;lat;lon;timestamp;P1;durP1;ratioP1;P2;durP2;ratioP2
41966;SDS011;27656;53.068;8.818;2024-02-04T00:00:40;9.23;;;2.73;;
41966;SDS011;27656;53.068;8.818;2024-02-04T00:03:06;11.83;;;2.60;;
41966;SDS011;27656;53.068;8.818;2024-02-04T00:05:33;13.20;;;2.40;;
41966;SDS011;27656;53.068;8.818;2024-02-04T00:07:59;10.87;;;3.00;;
41966;SDS011;27656;53.068;8.818;2024-02-04T00:10:26;12.00;;;3.10;;
41966;SDS011;27656;53.068;8.818;2024-02-04T00:12:53;9.40;;;2.50;;
41966;SDS011;27656;53.068;8.818;2024-02-04T00:15:20;15.27;;;2.47;;
41966;SDS011;27656;53.068;8.818;2024-02-04T00:17:46;8.47;;;2.90;;
41966;SDS011;27656;53.068;8.818;2024-02-04T00:20:13;19.60;;;3.27;;
41966;SDS011;27656;53.068;8.818;2024-02-04T00:22:39;9.43;;;2.63;;
41966;SDS011;27656;53.068;8.818;2024-02-04T00:25:06;13.33;;;3.20;;
41966;SDS011;27656;53.068;8.818;2024-02-04T00:27:36;10.83;;;2.80;;
41966;SDS011;27656;53.068;8.818;2024-02-04T00:30:03;18.93;;;4.00;;
41966;SDS011;27656;53.068;8.818;2024-02-04T00:32:30;10.03;;;3.87;;
41966;SDS011;27656;53.068;8.818;2024-02-04T00:34:57;10.03;;;3.43;;
41966;SDS011;27656;53.068;8.818;2024-02-04T00:37:23;13.10;;;3.53;;
41966;SDS011;27656;53.068;8.818;2024-02-04T00:39:50;12.30;;;3.70;;
41966;SDS011;27656;53.068;8.818;2024-02-04T00:42:16;15.07;;;4.10;;
41966;SDS011;27656;53.068;8.818;2024-02-04T00:44:42;9.73;;;3.47;;
41966;SDS011;27656;53.068;8.818;2024-02-04T00:47:09;19.47;;;4.20;;
41966;SDS011;27656;53.068;8.818;2024-02-04T00:49:35;10.23;;;4.00;;
41966;SDS011;27656;53.068;8.818;2024-02-04T00:52:03;17.03;;;5.80;;
41966;SDS011;27656;53.068;8.818;2024-02-04T00:54:30;13.50;;;4.27;;
41966;SDS011;27656;53.068;8.818;2024-02-04T00:56:56;19.60;;;4.80;;
41966;SDS011;27656;53.068;8.818;2024-02-04T00:59:23;12.53;;;4.13;;
41966;SDS011;27656;53.068;8.818;2024-02-04T01:01:50;11.67;;;4.80;;
41966;SDS011;27656;53.068;8.818;2024-02-04T01:04:16;12.30;;;4.83;;
41966;SDS011;27656;53.068;8.818;2024-02-04T01:06:43;12.57;;;4.97;;
41966;SDS011;27656;53.068;8.818;2024-02-04T01:09:25;14.83;;;4.63;;
41966;SDS011;27656;53.068;8.818;2024-02-04T01:11:52;10.37;;;5.07;;
41966;SDS011;27656;53.068;8.818;2024-02-04T01:14:19;12.33;;;4.47;;
41966;SDS011;27656;53.068;8.818;2024-02-04T01:16:45;18.53;;;6.20;;
41966;SDS011;27656;53.068;8.818;2024-02-04T01:19:12;13.50;;;5.30;;
41966;SDS011;27656;53.068;8.818;2024-02-04T01:21:38;16.07;;;5.53;;
41966;SDS011;27656;53.068;8.818;2024-02-04T01:24:05;11.87;;;5.20;;
41966;SDS011;27656;53.068;8.818;2024-02-04T01:26:32;14.07;;;6.10;;
41966;SDS011;27656;53.068;8.818;2024-02-04T01:28:58;11.03;;;5.93;;
41966;SDS011;27656;53.068;8.818;2024-02-04T01:31:25;20.07;;;6.50;;
41966;SDS011;27656;53.068;8.818;2024-02-04T01:33:51;17.73;;;6.20;;
41966;SDS011;27656;53.068;8.818;2024-02-04T01:36:18;15.27;;;6.93;;
41966;SDS011;27656;53.068;8.818;2024-02-04T01:38:44;18.23;;;6.90;;
41966;SDS011;27656;53.068;8.818;2024-02-04T01:41:11;15.70;;;6.40;;
41966;SDS011;27656;53.068;8.818;2024-02-04T01:43:37;17.83;;;6.60;;
41966;SDS011;27656;53.068;8.818;2024-02-04T01:46:04;17.47;;;6.60;;
41966;SDS011;27656;53.068;8.818;2024-02-04T01:48:34;16.33;;;7.10;;
41966;SDS011;27656;53.068;8.818;2024-02-04T01:51:01;18.43;;;7.17;;
41966;SDS011;27656;53.068;8.818;2024-02-04T01:53:29;16.27;;;6.83;;
41966;SDS011;27656;53.068;8.818;2024-02-04T01:56:00;17.27;;;7.77;;
41966;SDS011;27656;53.068;8.818;2024-02-04T01:58:27;19.73;;;8.03;;
41966;SDS011;27656;53.068;8.818;2024-02-04T02:00:53;12.97;;;6.77;;
41966;SDS011;27656;53.068;8.818;2024-02-04T02:03:20;14.63;;;6.73;;
41966;SDS011;27656;53.068;8.818;2024-02-04T02:05:48;18.33;;;7.53;;
41966;SDS011;27656;53.068;8.818;2024-02-04T02:08:15;16.70;;;6.73;;
41966;SDS011;27656;53.068;8.818;2024-02-04T02:10:43;20.00;;;7.40;;
41966;SDS011;27656;53.068;8.818;2024-02-04T02:13:17;15.80;;;7.70;;
41966;SDS011;27656;53.068;8.818;2024-02-04T02:15:49;16.47;;;6.83;;
41966;SDS011;27656;53.068;8.818;2024-02-04T02:18:25;14.30;;;7.03;;
41966;SDS011;27656;53.068;8.818;2024-02-04T02:21:16;15.30;;;7.20;;
41966;SDS011;27656;53.068;8.818;2024-02-04T02:24:14;17.97;;;7.53;;
41966;SDS011;27656;53.068;8.818;2024-02-04T02:26:43;15.30;;;6.43;;
41966;SDS011;27656;53.068;8.818;2024-02-04T02:29:10;18.50;;;6.90;;
41966;SDS011;27656;53.068;8.818;2024-02-04T02:31:37;18.80;;;7.97;;
41966;SDS011;27656;53.068;8.818;2024-02-04T02:34:14;15.90;;;7.47;;
41966;SDS011;27656;53.068;8.818;2024-02-04T02:37:03;17.63;;;7.90;;
41966;SDS011;27656;53.068;8.818;2024-02-04T02:42:38;15.43;;;6.27;;
41966;SDS011;27656;53.068;8.818;2024-02-04T02:45:08;15.67;;;7.30;;
41966;SDS011;27656;53.068;8.818;2024-02-04T02:47:37;16.00;;;7.00;;
41966;SDS011;27656;53.068;8.818;2024-02-04T02:50:06;17.00;;;6.70;;
41966;SDS011;27656;53.068;8.818;2024-02-04T02:52:34;13.17;;;6.53;;
41966;SDS011;27656;53.068;8.818;2024-02-04T02:55:00;18.13;;;6.87;;
41966;SDS011;27656;53.068;8.818;2024-02-04T02:57:27;18.70;;;6.97;;
41966;SDS011;27656;53.068;8.818;2024-02-04T02:59:53;18.67;;;6.60;;
41966;SDS011;27656;53.068;8.818;2024-02-04T03:02:19;12.80;;;5.67;;
41966;SDS011;27656;53.068;8.818;2024-02-04T03:04:46;19.93;;;5.93;;
41966;SDS011;27656;53.068;8.818;2024-02-04T03:07:12;12.87;;;5.67;;
41966;SDS011;27656;53.068;8.818;2024-02-04T03:09:39;16.80;;;5.50;;
41966;SDS011;27656;53.068;8.818;2024-02-04T03:12:06;20.87;;;5.33;;
41966;SDS011;27656;53.068;8.818;2024-02-04T03:14:32;16.30;;;5.30;;
41966;SDS011;27656;53.068;8.818;2024-02-04T03:16:59;12.37;;;4.90;;
41966;SDS011;27656;53.068;8.818;2024-02-04T03:19:25;12.20;;;5.00;;
41966;SDS011;27656;53.068;8.818;2024-02-04T03:21:52;13.73;;;4.97;;
41966;SDS011;27656;53.068;8.818;2024-02-04T03:24:18;11.97;;;5.20;;
41966;SDS011;27656;53.068;8.818;2024-02-04T03:26:45;11.90;;;4.67;;
41966;SDS011;27656;53.068;8.818;2024-02-04T03:29:11;21.03;;;5.60;;
41966;SDS011;27656;53.068;8.818;2024-02-04T03:31:38;12.17;;;4.93;;
41966;SDS011;27656;53.068;8.818;2024-02-04T03:34:04;20.07;;;5.20;;
41966;SDS011;27656;53.068;8.818;2024-02-04T03:36:31;13.17;;;4.57;;
41966;SDS011;27656;53.068;8.818;2024-02-04T03:38:58;17.57;;;4.40;;
41966;SDS011;27656;53.068;8.818;2024-02-04T03:41:24;11.97;;;4.00;;
41966;SDS011;27656;53.068;8.818;2024-02-04T03:43:51;14.27;;;4.43;;
41966;SDS011;27656;53.068;8.818;2024-02-04T03:46:17;15.10;;;4.67;;
41966;SDS011;27656;53.068;8.818;2024-02-04T03:48:44;14.57;;;3.80;;
41966;SDS011;27656;53.068;8.818;2024-02-04T03:51:17;13.77;;;3.60;;
41966;SDS011;27656;53.068;8.818;2024-02-04T03:53:45;11.47;;;3.90;;
41966;SDS011;27656;53.068;8.818;2024-02-04T03:56:12;13.63;;;4.30;;
41966;SDS011;27656;53.068;8.818;2024-02-04T03:58:39;13.13;;;3.90;;
41966;SDS011;27656;53.068;8.818;2024-02-04T04:01:09;12.13;;;3.53;;
41966;SDS011;27656;53.068;8.818;2024-02-04T04:03:40;9.83;;;3.77;;
41966;SDS011;27656;53.068;8.818;2024-02-04T04:06:08;11.03;;;3.70;;
41966;SDS011;27656;53.068;8.818;2024-02-04T04:08:36;10.07;;;3.20;;
41966;SDS011;27656;53.068;8.818;2024-02-04T04:11:03;9.50;;;3.57;;
41966;SDS011;27656;53.068;8.818;2024-02-04T04:13:30;10.67;;;3.90;;
41966;SDS011;27656;53.068;8.818;2024-02-04T04:16:01;12.70;;;3.33;;
41966;SDS011;27656;53.068;8.818;2024-02-04T04:18:28;11.80;;;3.60;;
41966;SDS011;27656;53.068;8.818;2024-02-04T04:20:55;5.57;;;2.77;;
41966;SDS011;27656;53.068;8.818;2024-02-04T04:23:22;14.20;;;3.73;;
41966;SDS011;27656;53.068;8.818;2024-02-04T04:25:48;11.93;;;3.30;;
41966;SDS011;27656;53.068;8.818;2024-02-04T04:28:15;8.20;;;2.73;;
41966;SDS011;27656;53.068;8.818;2024-02-04T04:30:41;12.97;;;3.43;;
41966;SDS011;27656;53.068;8.818;2024-02-04T04:33:08;13.43;;;4.10;;
41966;SDS011;27656;53.068;8.818;2024-02-04T04:35:35;10.03;;;3.00;;
41966;SDS011;27656;53.068;8.818;2024-02-04T04:38:01;13.70;;;3.33;;
41966;SDS011;27656;53.068;8.818;2024-02-04T04:40:28;9.67;;;2.90;;
41966;SDS011;27656;53.068;8.818;2024-02-04T04:42:54;15.23;;;3.30;;
41966;SDS011;27656;53.068;8.818;2024-02-04T04:45:21;14.00;;;2.80;;
41966;SDS011;27656;53.068;8.818;2024-02-04T04:47:48;12.70;;;2.83;;
41966;SDS011;27656;53.068;8.818;2024-02-04T04:50:14;7.23;;;2.40;;
41966;SDS011;27656;53.068;8.818;2024-02-04T04:52:41;9.67;;;2.60;;
41966;SDS011;27656;53.068;8.818;2024-02-04T04:55:07;9.17;;;2.30;;
41966;SDS011;27656;53.068;8.818;2024-02-04T04:57:34;13.13;;;2.40;;
41966;SDS011;27656;53.068;8.818;2024-02-04T05:00:01;10.47;;;2.40;;
41966;SDS011;27656;53.068;8.818;2024-02-04T05:02:33;12.07;;;2.83;;
41966;SDS011;27656;53.068;8.818;2024-02-04T05:04:59;11.40;;;2.47;;
41966;SDS011;27656;53.068;8.818;2024-02-04T05:07:26;9.43;;;2.13;;
41966;SDS011;27656;53.068;8.818;2024-02-04T05:09:53;15.60;;;4.37;;
41966;SDS011;27656;53.068;8.818;2024-02-04T05:12:19;10.70;;;2.10;;
41966;SDS011;27656;53.068;8.818;2024-02-04T05:14:46;7.90;;;2.40;;
41966;SDS011;27656;53.068;8.818;2024-02-04T05:17:12;17.50;;;3.77;;
41966;SDS011;27656;53.068;8.818;2024-02-04T05:19:40;9.07;;;2.13;;
41966;SDS011;27656;53.068;8.818;2024-02-04T05:22:08;10.63;;;1.93;;
41966;SDS011;27656;53.068;8.818;2024-02-04T05:24:35;11.03;;;2.00;;
41966;SDS011;27656;53.068;8.818;2024-02-04T05:27:01;9.77;;;2.20;;
41966;SDS011;27656;53.068;8.818;2024-02-04T05:29:28;7.33;;;1.83;;
41966;SDS011;27656;53.068;8.818;2024-02-04T05:31:54;13.70;;;2.20;;
41966;SDS011;27656;53.068;8.818;2024-02-04T05:34:21;10.63;;;2.70;;
41966;SDS011;27656;53.068;8.818;2024-02-04T05:36:47;8.60;;;1.90;;
41966;SDS011;27656;53.068;8.818;2024-02-04T05:39:14;7.13;;;1.70;;
41966;SDS011;27656;53.068;8.818;2024-02-04T05:41:43;13.80;;;2.00;;
41966;SDS011;27656;53.068;8.818;2024-02-04T05:44:09;9.03;;;1.80;;
41966;SDS011;27656;53.068;8.818;2024-02-04T05:46:36;10.33;;;2.00;;
41966;SDS011;27656;53.068;8.818;2024-02-04T05:49:03;10.90;;;2.17;;
41966;SDS011;27656;53.068;8.818;2024-02-04T05:51:32;7.10;;;2.20;;
41966;SDS011;27656;53.068;8.818;2024-02-04T05:53:59;11.33;;;2.23;;
41966;SDS011;27656;53.068;8.818;2024-02-04T05:56:26;7.57;;;2.00;;
41966;SDS011;27656;53.068;8.818;2024-02-04T05:58:52;13.07;;;2.27;;
41966;SDS011;27656;53.068;8.818;2024-02-04T06:01:19;17.10;;;2.37;;
41966;SDS011;27656;53.068;8.818;2024-02-04T06:03:45;9.23;;;2.10;;
41966;SDS011;27656;53.068;8.818;2024-02-04T06:06:15;6.43;;;1.90;;
41966;SDS011;27656;53.068;8.818;2024-02-04T06:08:42;11.80;;;2.40;;
41966;SDS011;27656;53.068;8.818;2024-02-04T06:11:09;11.07;;;2.53;;
41966;SDS011;27656;53.068;8.818;2024-02-04T06:13:39;15.30;;;2.47;;
41966;SDS011;27656;53.068;8.818;2024-02-04T06:16:06;11.93;;;2.13;;
41966;SDS011;27656;53.068;8.818;2024-02-04T06:18:34;8.67;;;1.87;;
41966;SDS011;27656;53.068;8.818;2024-02-04T06:21:01;8.20;;;2.10;;
41966;SDS011;27656;53.068;8.818;2024-02-04T06:23:28;12.13;;;2.10;;
41966;SDS011;27656;53.068;8.818;2024-02-04T06:25:54;8.03;;;2.30;;
41966;SDS011;27656;53.068;8.818;2024-02-04T06:28:20;9.03;;;2.27;;
41966;SDS011;27656;53.068;8.818;2024-02-04T06:30:48;6.73;;;2.30;;
41966;SDS011;27656;53.068;8.818;2024-02-04T06:33:15;17.07;;;2.87;;
41966;SDS011;27656;53.068;8.818;2024-02-04T06:35:42;10.00;;;2.53;;
41966;SDS011;27656;53.068;8.818;2024-02-04T06:38:09;11.40;;;3.23;;
41966;SDS011;27656;53.068;8.818;2024-02-04T06:40:35;9.17;;;2.53;;
41966;SDS011;27656;53.068;8.818;2024-02-04T06:43:02;10.70;;;2.43;;
41966;SDS011;27656;53.068;8.818;2024-02-04T06:45:28;6.77;;;2.50;;
41966;SDS011;27656;53.068;8.818;2024-02-04T06:47:54;14.03;;;2.83;;
41966;SDS011;27656;53.068;8.818;2024-02-04T06:50:21;10.93;;;2.90;;
41966;SDS011;27656;53.068;8.818;2024-02-04T06:52:47;12.27;;;2.97;;
41966;SDS011;27656;53.068;8.818;2024-02-04T06:55:14;12.63;;;3.77;;
41966;SDS011;27656;53.068;8.818;2024-02-04T06:57:41;11.37;;;3.20;;
41966;SDS011;27656;53.068;8.818;2024-02-04T07:00:07;12.60;;;3.67;;
41966;SDS011;27656;53.068;8.818;2024-02-04T07:02:34;11.77;;;3.67;;
41966;SDS011;27656;53.068;8.818;2024-02-04T07:05:01;16.07;;;3.73;;
41966;SDS011;27656;53.068;8.818;2024-02-04T07:07:27;9.97;;;3.53;;
41966;SDS011;27656;53.068;8.818;2024-02-04T07:09:54;13.43;;;4.37;;
41966;SDS011;27656;53.068;8.818;2024-02-04T07:12:20;9.43;;;3.90;;
41966;SDS011;27656;53.068;8.818;2024-02-04T07:14:47;9.53;;;3.93;;
41966;SDS011;27656;53.068;8.818;2024-02-04T07:17:13;12.37;;;4.17;;
41966;SDS011;27656;53.068;8.818;2024-02-04T07:19:40;10.60;;;4.23;;
41966;SDS011;27656;53.068;8.818;2024-02-04T07:22:06;10.63;;;3.47;;
41966;SDS011;27656;53.068;8.818;2024-02-04T07:24:33;14.70;;;4.13;;
41966;SDS011;27656;53.068;8.818;2024-02-04T07:27:01;11.10;;;3.97;;
41966;SDS011;27656;53.068;8.818;2024-02-04T07:29:27;10.60;;;3.57;;
41966;SDS011;27656;53.068;8.818;2024-02-04T07:31:54;17.63;;;4.93;;
41966;SDS011;27656;53.068;8.818;2024-02-04T07:34:20;14.30;;;3.70;;
41966;SDS011;27656;53.068;8.818;2024-02-04T07:36:47;17.53;;;4.37;;
41966;SDS011;27656;53.068;8.818;2024-02-04T07:39:13;10.97;;;3.77;;
41966;SDS011;27656;53.068;8.818;2024-02-04T07:41:40;14.47;;;3.60;;
41966;SDS011;27656;53.068;8.818;2024-02-04T07:44:06;11.63;;;4.27;;
41966;SDS011;27656;53.068;8.818;2024-02-04T07:46:33;13.27;;;3.20;;
41966;SDS011;27656;53.068;8.818;2024-02-04T07:48:59;14.47;;;3.27;;
41966;SDS011;27656;53.068;8.818;2024-02-04T07:51:26;13.37;;;3.70;;
41966;SDS011;27656;53.068;8.818;2024-02-04T07:53:52;13.73;;;3.40;;
41966;SDS011;27656;53.068;8.818;2024-02-04T07:56:19;9.20;;;2.80;;
41966;SDS011;27656;53.068;8.818;2024-02-04T07:58:45;10.00;;;3.40;;
41966;SDS011;27656;53.068;8.818;2024-02-04T08:01:12;11.83;;;3.50;;
41966;SDS011;27656;53.068;8.818;2024-02-04T08:03:38;16.03;;;3.03;;
41966;SDS011;27656;53.068;8.818;2024-02-04T08:06:05;15.37;;;4.10;;
41966;SDS011;27656;53.068;8.818;2024-02-04T08:08:31;12.30;;;2.80;;
41966;SDS011;27656;53.068;8.818;2024-02-04T08:10:58;8.67;;;2.90;;
41966;SDS011;27656;53.068;8.818;2024-02-04T08:13:27;14.23;;;3.20;;
41966;SDS011;27656;53.068;8.818;2024-02-04T08:15:53;11.10;;;2.53;;
41966;SDS011;27656;53.068;8.818;2024-02-04T08:18:20;8.83;;;3.23;;
41966;SDS011;27656;53.068;8.818;2024-02-04T08:20:47;9.47;;;2.50;;
41966;SDS011;27656;53.068;8.818;2024-02-04T08:23:13;15.27;;;2.77;;
41966;SDS011;27656;53.068;8.818;2024-02-04T08:25:40;13.70;;;2.50;;
41966;SDS011;27656;53.068;8.818;2024-02-04T08:28:06;9.37;;;2.33;;
41966;SDS011;27656;53.068;8.818;2024-02-04T08:30:33;12.73;;;2.83;;
41966;SDS011;27656;53.068;8.818;2024-02-04T08:32:59;10.97;;;2.33;;
41966;SDS011;27656;53.068;8.818;2024-02-04T08:35:26;9.23;;;2.60;;
41966;SDS011;27656;53.068;8.818;2024-02-04T08:37:52;9.63;;;2.10;;
41966;SDS011;27656;53.068;8.818;2024-02-04T08:40:19;12.47;;;2.73;;
41966;SDS011;27656;53.068;8.818;2024-02-04T08:42:45;15.40;;;2.20;;
41966;SDS011;27656;53.068;8.818;2024-02-04T08:45:12;11.57;;;2.37;;
41966;SDS011;27656;53.068;8.818;2024-02-04T08:47:38;13.57;;;2.37;;
41966;SDS011;27656;53.068;8.818;2024-02-04T08:50:05;10.17;;;2.03;;
41966;SDS011;27656;53.068;8.818;2024-02-04T08:52:32;7.57;;;2.10;;
41966;SDS011;27656;53.068;8.818;2024-02-04T08:54:58;11.63;;;2.70;;
41966;SDS011;27656;53.068;8.818;2024-02-04T08:57:26;14.53;;;2.67;;
41966;SDS011;27656;53.068;8.818;2024-02-04T08:59:52;10.97;;;2.37;;
41966;SDS011;27656;53.068;8.818;2024-02-04T09:02:19;11.53;;;2.37;;
41966;SDS011;27656;53.068;8.818;2024-02-04T09:04:45;12.87;;;2.40;;
41966;SDS011;27656;53.068;8.818;2024-02-04T09:07:12;7.50;;;1.80;;
41966;SDS011;27656;53.068;8.818;2024-02-04T09:09:39;10.30;;;1.80;;
41966;SDS011;27656;53.068;8.818;2024-02-04T09:12:06;12.43;;;2.10;;
41966;SDS011;27656;53.068;8.818;2024-02-04T09:14:34;10.63;;;1.93;;
41966;SDS011;27656;53.068;8.818;2024-02-04T09:17:04;12.47;;;1.90;;
41966;SDS011;27656;53.068;8.818;2024-02-04T09:19:31;20.27;;;2.63;;
41966;SDS011;27656;53.068;8.818;2024-02-04T09:21:58;11.23;;;2.17;;
41966;SDS011;27656;53.068;8.818;2024-02-04T09:24:27;9.03;;;2.80;;
41966;SDS011;27656;53.068;8.818;2024-02-04T09:26:54;10.43;;;2.30;;
41966;SDS011;27656;53.068;8.818;2024-02-04T09:29:21;14.10;;;2.00;;
41966;SDS011;27656;53.068;8.818;2024-02-04T09:31:48;12.10;;;2.23;;
41966;SDS011;27656;53.068;8.818;2024-02-04T09:34:16;9.57;;;1.87;;
41966;SDS011;27656;53.068;8.818;2024-02-04T09:36:47;16.80;;;2.63;;
41966;SDS011;27656;53.068;8.818;2024-02-04T09:39:13;10.60;;;2.70;;
41966;SDS011;27656;53.068;8.818;2024-02-04T09:41:40;10.47;;;2.07;;
41966;SDS011;27656;53.068;8.818;2024-02-04T09:44:06;10.53;;;2.50;;
41966;SDS011;27656;53.068;8.818;2024-02-04T09:46:34;8.57;;;2.10;;
41966;SDS011;27656;53.068;8.818;2024-02-04T09:49:01;10.07;;;2.30;;
41966;SDS011;27656;53.068;8.818;2024-02-04T09:51:29;17.37;;;2.80;;
41966;SDS011;27656;53.068;8.818;2024-02-04T09:53:57;15.23;;;2.67;;
41966;SDS011;27656;53.068;8.818;2024-02-04T09:56:29;10.57;;;2.17;;
41966;SDS011;27656;53.068;8.818;2024-02-04T09:58:57;10.83;;;2.60;;
41966;SDS011;27656;53.068;8.818;2024-02-04T10:01:23;17.53;;;2.63;;
41966;SDS011;27656;53.068;8.818;2024-02-04T10:03:52;12.60;;;2.03;;
41966;SDS011;27656;53.068;8.818;2024-02-04T10:06:19;9.50;;;2.70;;
41966;SDS011;27656;53.068;8.818;2024-02-04T10:08:46;9.07;;;2.47;;
41966;SDS011;27656;53.068;8.818;2024-02-04T10:11:14;14.63;;;2.57;;
41966;SDS011;27656;53.068;8.818;2024-02-04T10:13:48;13.50;;;2.33;;
41966;SDS011;27656;53.068;8.818;2024-02-04T10:16:16;7.97;;;2.40;;
41966;SDS011;27656;53.068;8.818;2024-02-04T10:18:47;10.47;;;2.20;;
41966;SDS011;27656;53.068;8.818;2024-02-04T10:21:18;12.87;;;2.33;;
41966;SDS011;27656;53.068;8.818;2024-02-04T10:23:49;16.50;;;2.70;;
41966;SDS011;27656;53.068;8.818;2024-02-04T10:26:17;8.90;;;2.47;;
41966;SDS011;27656;53.068;8.818;2024-02-04T10:28:46;11.43;;;2.13;;
41966;SDS011;27656;53.068;8.818;2024-02-04T10:31:14;10.83;;;2.60;;
41966;SDS011;27656;53.068;8.818;2024-02-04T10:33:41;11.17;;;2.63;;
41966;SDS011;27656;53.068;8.818;2024-02-04T10:36:08;13.47;;;2.77;;
41966;SDS011;27656;53.068;8.818;2024-02-04T10:38:34;10.33;;;2.83;;
41966;SDS011;27656;53.068;8.818;2024-02-04T10:41:01;12.00;;;2.40;;
41966;SDS011;27656;53.068;8.818;2024-02-04T10:43:32;8.77;;;2.23;;
41966;SDS011;27656;53.068;8.818;2024-02-04T10:46:01;13.73;;;2.30;;
41966;SDS011;27656;53.068;8.818;2024-02-04T10:48:36;11.77;;;2.50;;
41966;SDS011;27656;53.068;8.818;2024-02-04T10:51:12;14.97;;;2.70;;
41966;SDS011;27656;53.068;8.818;2024-02-04T10:53:44;16.87;;;2.63;;
41966;SDS011;27656;53.068;8.818;2024-02-04T10:56:30;14.83;;;2.77;;
41966;SDS011;27656;53.068;8.818;2024-02-04T10:59:00;14.53;;;2.87;;
41966;SDS011;27656;53.068;8.818;2024-02-04T11:01:29;11.27;;;2.83;;
41966;SDS011;27656;53.068;8.818;2024-02-04T11:03:56;10.47;;;2.30;;
41966;SDS011;27656;53.068;8.818;2024-02-04T11:06:23;11.00;;;2.57;;
41966;SDS011;27656;53.068;8.818;2024-02-04T11:08:50;10.37;;;2.63;;
41966;SDS011;27656;53.068;8.818;2024-02-04T11:11:21;13.47;;;2.67;;
41966;SDS011;27656;53.068;8.818;2024-02-04T11:13:50;12.40;;;2.70;;
41966;SDS011;27656;53.068;8.818;2024-02-04T11:16:31;8.83;;;2.23;;
41966;SDS011;27656;53.068;8.818;2024-02-04T11:21:48;10.37;;;2.20;;
41966;SDS011;27656;53.068;8.818;2024-02-04T11:24:44;13.40;;;3.00;;
41966;SDS011;27656;53.068;8.818;2024-02-04T11:27:21;9.73;;;2.27;;
41966;SDS011;27656;53.068;8.818;2024-02-04T11:29:48;12.83;;;2.60;;
41966;SDS011;27656;53.068;8.818;2024-02-04T11:32:16;11.20;;;2.83;;
41966;SDS011;27656;53.068;8.818;2024-02-04T11:34:44;10.83;;;2.50;;
41966;SDS011;27656;53.068;8.818;2024-02-04T11:37:15;11.57;;;2.97;;
41966;SDS011;27656;53.068;8.818;2024-02-04T11:39:48;12.90;;;2.80;;
41966;SDS011;27656;53.068;8.818;2024-02-04T11:42:18;9.87;;;2.17;;
41966;SDS011;27656;53.068;8.818;2024-02-04T11:44:46;8.23;;;2.77;;
41966;SDS011;27656;53.068;8.818;2024-02-04T11:47:22;8.60;;;2.23;;
41966;SDS011;27656;53.068;8.818;2024-02-04T11:49:54;11.80;;;2.57;;
41966;SDS011;27656;53.068;8.818;2024-02-04T11:52:27;11.03;;;3.47;;
41966;SDS011;27656;53.068;8.818;2024-02-04T11:54:54;8.60;;;2.10;;
41966;SDS011;27656;53.068;8.818;2024-02-04T11:57:21;9.17;;;2.37;;
41966;SDS011;27656;53.068;8.818;2024-02-04T11:59:50;10.20;;;2.27;;
41966;SDS011;27656;53.068;8.818;2024-02-04T12:02:18;16.00;;;2.60;;
41966;SDS011;27656;53.068;8.818;2024-02-04T12:04:46;12.57;;;2.97;;
41966;SDS011;27656;53.068;8.818;2024-02-04T12:07:14;9.87;;;2.23;;
41966;SDS011;27656;53.068;8.818;2024-02-04T12:09:41;14.40;;;2.40;;
41966;SDS011;27656;53.068;8.818;2024-02-04T12:12:08;11.67;;;2.57;;
41966;SDS011;27656;53.068;8.818;2024-02-04T12:14:35;11.47;;;2.23;;
41966;SDS011;27656;53.068;8.818;2024-02-04T12:17:11;7.13;;;2.33;;
41966;SDS011;27656;53.068;8.818;2024-02-04T12:19:38;14.00;;;2.27;;
41966;SDS011;27656;53.068;8.818;2024-02-04T12:22:09;10.47;;;2.73;;
41966;SDS011;27656;53.068;8.818;2024-02-04T12:24:37;11.10;;;2.67;;
41966;SDS011;27656;53.068;8.818;2024-02-04T12:27:04;7.03;;;2.33;;
41966;SDS011;27656;53.068;8.818;2024-02-04T12:29:31;8.13;;;2.10;;
41966;SDS011;27656;53.068;8.818;2024-02-04T12:32:01;13.43;;;2.70;;
41966;SDS011;27656;53.068;8.818;2024-02-04T12:34:30;10.73;;;2.40;;
41966;SDS011;27656;53.068;8.818;2024-02-04T12:36:59;8.63;;;2.30;;
41966;SDS011;27656;53.068;8.818;2024-02-04T12:39:26;7.23;;;2.13;;
41966;SDS011;27656;53.068;8.818;2024-02-04T12:41:53;7.40;;;2.37;;
41966;SDS011;27656;53.068;8.818;2024-02-04T12:44:20;12.73;;;2.50;;
41966;SDS011;27656;53.068;8.818;2024-02-04T12:46:53;10.40;;;2.63;;
41966;SDS011;27656;53.068;8.818;2024-02-04T12:49:20;7.30;;;2.77;;
41966;SDS011;27656;53.068;8.818;2024-02-04T12:51:51;6.00;;;2.07;;
41966;SDS011;27656;53.068;8.818;2024-02-04T12:54:22;9.80;;;2.30;;
41966;SDS011;27656;53.068;8.818;2024-02-04T12:56:52;12.30;;;2.40;;
41966;SDS011;27656;53.068;8.818;2024-02-04T12:59:26;14.47;;;2.43;;
41966;SDS011;27656;53.068;8.818;2024-02-04T13:01:55;8.03;;;1.90;;
41966;SDS011;27656;53.068;8.818;2024-02-04T13:04:23;8.27;;;2.00;;
41966;SDS011;27656;53.068;8.818;2024-02-04T13:06:51;6.60;;;1.57;;
41966;SDS011;27656;53.068;8.818;2024-02-04T13:09:18;11.27;;;2.10;;
41966;SDS011;27656;53.068;8.818;2024-02-04T13:11:45;8.63;;;2.23;;
41966;SDS011;27656;53.068;8.818;2024-02-04T13:14:12;10.77;;;1.90;;
41966;SDS011;27656;53.068;8.818;2024-02-04T13:16:39;13.63;;;2.10;;
41966;SDS011;27656;53.068;8.818;2024-02-04T13:19:05;12.47;;;2.70;;
41966;SDS011;27656;53.068;8.818;2024-02-04T13:21:33;12.77;;;2.23;;
41966;SDS011;27656;53.068;8.818;2024-02-04T13:23:59;8.93;;;1.90;;
41966;SDS011;27656;53.068;8.818;2024-02-04T13:26:26;9.30;;;2.00;;
41966;SDS011;27656;53.068;8.818;2024-02-04T13:28:52;9.50;;;2.00;;
41966;SDS011;27656;53.068;8.818;2024-02-04T13:31:19;8.43;;;1.50;;
41966;SDS011;27656;53.068;8.818;2024-02-04T13:33:45;12.00;;;2.03;;
41966;SDS011;27656;53.068;8.818;2024-02-04T13:36:12;9.33;;;2.23;;
41966;SDS011;27656;53.068;8.818;2024-02-04T13:38:38;9.20;;;1.70;;
41966;SDS011;27656;53.068;8.818;2024-02-04T13:41:05;8.77;;;1.93;;
41966;SDS011;27656;53.068;8.818;2024-02-04T13:43:33;6.97;;;1.70;;
41966;SDS011;27656;53.068;8.818;2024-02-04T13:46:00;7.97;;;1.77;;
41966;SDS011;27656;53.068;8.818;2024-02-04T13:48:28;8.17;;;2.10;;
41966;SDS011;27656;53.068;8.818;2024-02-04T13:50:55;8.30;;;1.73;;
41966;SDS011;27656;53.068;8.818;2024-02-04T13:53:21;7.43;;;2.20;;
41966;SDS011;27656;53.068;8.818;2024-02-04T13:55:49;11.97;;;2.20;;
41966;SDS011;27656;53.068;8.818;2024-02-04T13:58:15;9.37;;;2.20;;
41966;SDS011;27656;53.068;8.818;2024-02-04T14:00:44;12.27;;;1.90;;
41966;SDS011;27656;53.068;8.818;2024-02-04T14:03:11;9.20;;;1.90;;
41966;SDS011;27656;53.068;8.818;2024-02-04T14:05:39;7.57;;;1.57;;
41966;SDS011;27656;53.068;8.818;2024-02-04T14:08:06;11.70;;;2.20;;
41966;SDS011;27656;53.068;8.818;2024-02-04T14:10:33;7.20;;;1.93;;
41966;SDS011;27656;53.068;8.818;2024-02-04T14:12:59;10.83;;;2.70;;
41966;SDS011;27656;53.068;8.818;2024-02-04T14:15:26;10.17;;;2.17;;
41966;SDS011;27656;53.068;8.818;2024-02-04T14:17:53;10.23;;;1.80;;
41966;SDS011;27656;53.068;8.818;2024-02-04T14:20:20;9.93;;;2.10;;
41966;SDS011;27656;53.068;8.818;2024-02-04T14:22:48;13.33;;;2.27;;
41966;SDS011;27656;53.068;8.818;2024-02-04T14:25:15;5.47;;;1.70;;
41966;SDS011;27656;53.068;8.818;2024-02-04T14:27:42;6.77;;;2.03;;
41966;SDS011;27656;53.068;8.818;2024-02-04T14:30:08;8.23;;;1.97;;
41966;SDS011;27656;53.068;8.818;2024-02-04T14:32:35;10.37;;;2.70;;
41966;SDS011;27656;53.068;8.818;2024-02-04T14:35:02;10.80;;;2.07;;
41966;SDS011;27656;53.068;8.818;2024-02-04T14:37:31;9.23;;;1.93;;
41966;SDS011;27656;53.068;8.818;2024-02-04T14:40:01;8.60;;;1.87;;
41966;SDS011;27656;53.068;8.818;2024-02-04T14:42:30;15.20;;;2.20;;
41966;SDS011;27656;53.068;8.818;2024-02-04T14:44:56;8.63;;;2.37;;
41966;SDS011;27656;53.068;8.818;2024-02-04T14:47:23;4.93;;;1.57;;